createdAt,value
2023-05-23T00:02:08.727Z,85.20
2023-05-23T00:05:31.192Z,85.00
2023-05-23T00:08:53.519Z,85.10
2023-05-23T00:12:15.829Z,85.10
2023-05-23T00:15:42.036Z,85.00
2023-05-23T00:19:05.462Z,85.10
2023-05-23T00:22:27.865Z,85.10
2023-05-23T00:25:53.448Z,85.10
2023-05-23T00:29:16.887Z,85.00
2023-05-23T00:32:39.441Z,85.10
2023-05-23T00:36:01.787Z,85.00
2023-05-23T00:39:24.068Z,85.00
2023-05-23T00:42:47.507Z,85.00
2023-05-23T00:46:11.234Z,85.70
2023-05-23T00:49:34.259Z,84.90
2023-05-23T00:52:58.867Z,84.80
2023-05-23T00:56:21.289Z,84.70
2023-05-23T00:59:45.524Z,84.80
2023-05-23T01:03:08.355Z,84.70
2023-05-23T01:06:33.744Z,84.70
2023-05-23T01:09:56.131Z,84.70
2023-05-23T01:13:21.496Z,84.80
2023-05-23T01:17:07.507Z,84.70
2023-05-23T01:20:52.075Z,84.70
2023-05-23T01:24:36.388Z,84.70
2023-05-23T01:28:03.913Z,84.70
2023-05-23T01:31:27.856Z,84.70
2023-05-23T01:34:53.424Z,84.70
2023-05-23T01:38:15.834Z,84.70
2023-05-23T01:41:38.414Z,84.70
2023-05-23T01:45:01.061Z,84.70
2023-05-23T01:48:26.557Z,84.70
2023-05-23T01:51:49.401Z,84.70
2023-05-23T01:55:14.255Z,84.50
2023-05-23T01:58:36.982Z,84.50
2023-05-23T02:01:59.679Z,84.40
2023-05-23T02:05:22.129Z,84.50
2023-05-23T02:08:44.411Z,84.60
2023-05-23T02:12:07.072Z,84.40
2023-05-23T02:15:29.536Z,84.40
2023-05-23T02:18:56.285Z,84.50
2023-05-23T02:22:22.720Z,84.40
2023-05-23T02:25:45.109Z,84.60
2023-05-23T02:29:07.452Z,84.50
2023-05-23T02:32:30.331Z,84.60
2023-05-23T02:35:52.835Z,84.60
2023-05-23T02:39:15.187Z,84.60
2023-05-23T02:42:38.118Z,84.60
2023-05-23T02:46:00.522Z,84.40
2023-05-23T02:49:22.845Z,84.60
2023-05-23T02:52:46.694Z,84.40
2023-05-23T02:56:09.742Z,84.40
2023-05-23T02:59:32.219Z,84.40
2023-05-23T03:02:54.662Z,84.40
2023-05-23T03:06:17.228Z,84.30
2023-05-23T03:09:39.801Z,84.40
2023-05-23T03:13:02.142Z,84.30
2023-05-23T03:16:24.940Z,84.30
2023-05-23T03:19:47.578Z,84.30
2023-05-23T03:23:09.872Z,84.30
2023-05-23T03:26:32.461Z,84.40
2023-05-23T03:29:54.727Z,84.30
2023-05-23T03:33:16.978Z,84.40
2023-05-23T03:36:39.336Z,84.40
2023-05-23T03:40:01.709Z,84.40
2023-05-23T03:43:25.200Z,84.40
2023-05-23T03:46:47.561Z,85.60
2023-05-23T03:50:11.411Z,84.70
2023-05-23T03:53:36.445Z,84.60
2023-05-23T03:56:59.878Z,84.70
2023-05-23T04:00:22.332Z,84.60
2023-05-23T04:03:46.610Z,84.60
2023-05-23T04:07:10.041Z,84.50
2023-05-23T04:10:34.085Z,84.50
2023-05-23T04:13:56.733Z,84.40
2023-05-23T04:17:19.101Z,84.50
2023-05-23T04:20:41.997Z,84.50
2023-05-23T04:24:04.560Z,84.50
2023-05-23T04:27:27.353Z,84.40
2023-05-23T04:30:50.247Z,84.50
2023-05-23T04:34:17.264Z,84.40
2023-05-23T04:37:39.814Z,84.50
2023-05-23T04:41:02.405Z,84.50
2023-05-23T04:44:34.148Z,84.40
2023-05-23T04:48:08.424Z,84.40
2023-05-23T04:51:35.236Z,84.40
2023-05-23T04:55:08.821Z,84.30
2023-05-23T04:58:31.922Z,84.30
2023-05-23T05:01:59.122Z,84.30
2023-05-23T05:05:21.606Z,84.30
2023-05-23T05:08:43.944Z,84.30
2023-05-23T05:12:07.482Z,84.20
2023-05-23T05:15:29.784Z,84.10
2023-05-23T05:18:54.288Z,84.10
2023-05-23T05:22:18.417Z,84.30
2023-05-23T05:25:41.363Z,84.10
2023-05-23T05:29:04.217Z,84.20
2023-05-23T05:32:26.762Z,84.10
2023-05-23T05:35:51.590Z,84.30
2023-05-23T05:39:17.000Z,84.20
2023-05-23T05:42:39.546Z,84.30
2023-05-23T05:46:02.020Z,84.90
2023-05-23T05:49:25.048Z,85.70
2023-05-23T05:52:47.440Z,86.00
2023-05-23T05:56:09.737Z,86.00
2023-05-23T05:59:34.006Z,86.20
2023-05-23T06:02:59.878Z,86.50
2023-05-23T06:06:34.226Z,85.70
2023-05-23T06:09:56.519Z,86.70
2023-05-23T06:13:18.894Z,86.60
2023-05-23T06:16:46.662Z,87.20
2023-05-23T06:20:09.326Z,87.00
2023-05-23T06:23:34.515Z,86.70
2023-05-23T06:26:56.857Z,86.70
2023-05-23T06:30:20.330Z,86.90
2023-05-23T06:33:43.180Z,86.90
2023-05-23T06:37:06.362Z,87.00
2023-05-23T06:40:28.808Z,86.40
2023-05-23T06:43:51.168Z,87.50
2023-05-23T06:47:21.176Z,87.30
2023-05-23T06:50:43.628Z,86.90
2023-05-23T06:54:07.734Z,87.00
2023-05-23T06:57:30.445Z,86.50
2023-05-23T07:00:53.203Z,86.50
2023-05-23T07:04:28.002Z,86.40
2023-05-23T07:07:54.456Z,86.40
2023-05-23T07:11:17.794Z,86.30
2023-05-23T07:14:45.679Z,86.20
2023-05-23T07:18:09.523Z,86.10
2023-05-23T07:21:32.126Z,86.00
2023-05-23T07:24:54.639Z,85.90
2023-05-23T07:28:21.578Z,85.70
2023-05-23T07:31:44.413Z,85.70
2023-05-23T07:35:08.833Z,85.50
2023-05-23T07:38:31.428Z,85.40
2023-05-23T07:41:54.238Z,85.70
2023-05-23T07:45:16.759Z,86.50
2023-05-23T07:48:39.328Z,85.10
2023-05-23T07:52:01.733Z,85.00
2023-05-23T07:55:24.509Z,84.70
2023-05-23T07:58:50.923Z,84.60
2023-05-23T08:02:13.575Z,84.40
2023-05-23T08:05:36.796Z,83.70
2023-05-23T08:08:59.118Z,82.70
2023-05-23T08:12:22.662Z,82.40
2023-05-23T08:15:53.994Z,82.40
2023-05-23T08:19:20.295Z,82.70
2023-05-23T08:22:42.554Z,83.30
2023-05-23T08:26:05.709Z,83.60
2023-05-23T08:29:28.353Z,83.60
2023-05-23T08:32:51.572Z,83.70
2023-05-23T08:36:13.946Z,83.90
2023-05-23T08:39:37.457Z,83.90
2023-05-23T08:43:25.699Z,83.90
2023-05-23T08:46:50.032Z,83.80
2023-05-23T08:50:39.558Z,83.80
2023-05-23T08:54:02.609Z,83.80
2023-05-23T08:57:26.782Z,83.80
2023-05-23T09:00:55.554Z,84.60
2023-05-23T09:04:18.784Z,84.70
2023-05-23T09:07:51.501Z,85.60
2023-05-23T09:11:14.824Z,86.50
2023-05-23T09:14:39.470Z,86.90
2023-05-23T09:18:04.349Z,87.40
2023-05-23T09:21:32.209Z,88.20
2023-05-23T09:25:05.391Z,88.20
2023-05-23T09:28:28.103Z,88.30
2023-05-23T09:31:50.537Z,88.30
2023-05-23T09:35:14.022Z,88.20
2023-05-23T09:38:41.037Z,88.30
2023-05-23T09:42:05.056Z,88.20
2023-05-23T09:45:31.236Z,85.70
2023-05-23T09:48:54.439Z,86.50
2023-05-23T09:52:16.701Z,87.80
2023-05-23T09:55:40.476Z,87.80
2023-05-23T09:59:03.999Z,88.40
2023-05-23T10:02:45.113Z,88.30
2023-05-23T10:06:12.232Z,87.90
2023-05-23T10:09:38.190Z,88.30
2023-05-23T10:13:06.162Z,87.80
2023-05-23T10:16:48.242Z,87.60
2023-05-23T10:20:17.774Z,87.50
2023-05-23T10:23:40.906Z,87.40
2023-05-23T10:27:03.866Z,87.30
2023-05-23T10:30:29.330Z,87.20
2023-05-23T10:33:58.527Z,87.10
2023-05-23T10:37:32.475Z,87.00
2023-05-23T10:41:38.336Z,86.90
2023-05-23T10:45:20.753Z,86.80
2023-05-23T10:48:44.532Z,86.70
2023-05-23T10:52:07.623Z,86.60
2023-05-23T10:55:37.041Z,87.40
2023-05-23T10:58:59.328Z,86.50
2023-05-23T11:02:29.416Z,86.60
2023-05-23T11:05:54.458Z,86.60
2023-05-23T11:09:21.504Z,86.50
2023-05-23T11:12:45.089Z,86.50
2023-05-23T11:16:26.523Z,86.60
2023-05-23T11:20:13.307Z,86.70
2023-05-23T11:23:42.054Z,86.50
2023-05-23T11:27:04.741Z,86.40
2023-05-23T11:30:29.218Z,86.40
2023-05-23T11:33:51.846Z,86.20
2023-05-23T11:37:14.416Z,86.10
2023-05-23T11:40:47.598Z,86.20
2023-05-23T11:44:13.891Z,86.20
2023-05-23T11:47:41.432Z,86.20
2023-05-23T11:51:03.881Z,86.10
2023-05-23T11:54:27.246Z,86.10
2023-05-23T11:57:51.963Z,86.10
2023-05-23T12:01:14.383Z,86.10
2023-05-23T12:04:37.368Z,86.10
2023-05-23T12:08:00.944Z,86.20
2023-05-23T12:11:24.584Z,86.10
2023-05-23T12:14:46.974Z,86.00
2023-05-23T12:18:09.605Z,86.10
2023-05-23T12:21:45.921Z,86.00
2023-05-23T12:25:11.330Z,86.10
2023-05-23T12:28:47.696Z,86.00
2023-05-23T12:32:09.943Z,86.50
2023-05-23T12:35:32.321Z,86.70
2023-05-23T12:39:01.803Z,87.00
2023-05-23T12:42:24.129Z,86.70
2023-05-23T12:45:46.363Z,86.80
2023-05-23T12:49:08.635Z,86.80
2023-05-23T12:52:30.888Z,86.60
2023-05-23T12:55:53.154Z,86.40
2023-05-23T12:59:15.311Z,86.50
2023-05-23T13:02:37.917Z,86.60
2023-05-23T13:06:00.408Z,86.60
2023-05-23T13:09:22.862Z,86.60
2023-05-23T13:12:45.102Z,86.50
2023-05-23T13:16:07.310Z,86.50
2023-05-23T13:19:29.808Z,86.50
2023-05-23T13:22:52.091Z,86.50
2023-05-23T13:26:14.675Z,86.40
2023-05-23T13:29:36.970Z,86.30
2023-05-23T13:32:59.344Z,86.30
2023-05-23T13:36:21.896Z,86.40
2023-05-23T13:39:44.177Z,86.30
2023-05-23T13:43:06.584Z,86.50
2023-05-23T13:46:28.889Z,86.40
2023-05-23T13:49:51.325Z,86.50
2023-05-23T13:53:17.007Z,86.40
2023-05-23T13:56:40.410Z,86.20
2023-05-23T14:00:03.706Z,86.20
2023-05-23T14:03:27.267Z,86.20
2023-05-23T14:06:49.883Z,86.10
2023-05-23T14:10:12.187Z,86.10
2023-05-23T14:13:34.398Z,86.10
2023-05-23T14:16:57.823Z,86.00
2023-05-23T14:20:20.028Z,86.00
2023-05-23T14:23:42.485Z,85.90
2023-05-23T14:27:04.860Z,85.80
2023-05-23T14:30:27.185Z,85.70
2023-05-23T14:33:49.969Z,85.90
2023-05-23T14:37:12.271Z,85.90
2023-05-23T14:40:34.485Z,85.70
2023-05-23T14:43:56.753Z,85.70
2023-05-23T14:47:19.139Z,85.80
2023-05-23T14:50:42.517Z,85.70
2023-05-23T14:54:04.835Z,86.00
2023-05-23T14:57:27.141Z,85.80
2023-05-23T15:00:49.810Z,85.60
2023-05-23T15:04:12.050Z,85.40
2023-05-23T15:07:35.231Z,85.20
2023-05-23T15:10:57.698Z,85.10
2023-05-23T15:14:20.717Z,85.00
2023-05-23T15:17:43.489Z,85.00
2023-05-23T15:21:05.808Z,84.90
2023-05-23T15:24:28.565Z,85.10
2023-05-23T15:27:50.822Z,85.10
2023-05-23T15:31:13.559Z,85.20
2023-05-23T15:34:36.181Z,85.20
2023-05-23T15:37:58.443Z,85.00
2023-05-23T15:41:20.718Z,85.10
2023-05-23T15:44:43.000Z,85.20
2023-05-23T15:48:07.333Z,85.10
2023-05-23T15:51:32.588Z,85.50
2023-05-23T15:54:54.784Z,84.70
2023-05-23T15:58:17.114Z,80.60
2023-05-23T16:01:39.623Z,80.30
2023-05-23T16:05:02.422Z,79.90
2023-05-23T16:08:24.681Z,76.10
2023-05-23T16:11:47.028Z,74.90
2023-05-23T16:15:09.816Z,74.30
2023-05-23T16:18:32.121Z,73.60
2023-05-23T16:21:54.345Z,73.40
2023-05-23T16:25:16.687Z,73.40
2023-05-23T16:28:38.937Z,73.30
2023-05-23T16:32:01.506Z,73.10
2023-05-23T16:35:23.981Z,73.80
2023-05-23T16:38:46.403Z,73.60
2023-05-23T16:42:08.644Z,73.50
2023-05-23T16:45:30.887Z,73.50
2023-05-23T16:48:54.058Z,73.40
2023-05-23T16:52:16.723Z,73.20
2023-05-23T16:55:39.151Z,73.20
2023-05-23T16:59:01.813Z,73.20
2023-05-23T17:02:24.284Z,72.90
2023-05-23T17:05:46.630Z,72.80
2023-05-23T17:09:08.935Z,73.50
2023-05-23T17:12:31.208Z,72.50
2023-05-23T17:15:53.729Z,73.30
2023-05-23T17:19:16.124Z,71.30
2023-05-23T17:22:38.786Z,70.20
2023-05-23T17:26:01.134Z,70.20
2023-05-23T17:29:23.384Z,70.20
2023-05-23T17:32:47.269Z,69.90
2023-05-23T17:36:11.009Z,70.00
2023-05-23T17:39:33.318Z,71.20
2023-05-23T17:42:55.688Z,73.60
2023-05-23T17:46:18.015Z,73.50
2023-05-23T17:49:41.801Z,73.70
2023-05-23T17:53:04.621Z,74.10
2023-05-23T17:56:26.923Z,74.10
2023-05-23T17:59:49.410Z,74.30
2023-05-23T18:03:11.946Z,75.00
2023-05-23T18:06:34.283Z,75.10
2023-05-23T18:09:59.697Z,75.90
2023-05-23T18:13:21.988Z,73.20
2023-05-23T18:16:44.247Z,75.80
2023-05-23T18:20:07.622Z,77.30
2023-05-23T18:23:29.931Z,75.90
2023-05-23T18:26:52.210Z,78.30
2023-05-23T18:30:14.654Z,79.30
2023-05-23T18:33:37.169Z,78.90
2023-05-23T18:36:59.634Z,78.20
2023-05-23T18:40:23.984Z,77.60
2023-05-23T18:43:46.478Z,77.20
2023-05-23T18:47:08.704Z,77.10
2023-05-23T18:50:30.960Z,77.30
2023-05-23T18:53:53.213Z,71.50
2023-05-23T18:57:17.309Z,74.80
2023-05-23T19:00:39.704Z,75.50
2023-05-23T19:04:02.158Z,75.70
2023-05-23T19:07:24.414Z,75.50
2023-05-23T19:10:46.565Z,76.40
2023-05-23T19:14:09.053Z,76.30
2023-05-23T19:17:31.388Z,75.90
2023-05-23T19:20:54.558Z,76.20
2023-05-23T19:24:16.947Z,76.00
2023-05-23T19:27:39.116Z,75.70
2023-05-23T19:31:01.678Z,75.70
2023-05-23T19:34:24.002Z,75.90
2023-05-23T19:37:46.383Z,75.70
2023-05-23T19:41:08.772Z,75.80
2023-05-23T19:44:31.484Z,75.80
2023-05-23T19:47:53.798Z,75.20
2023-05-23T19:51:16.286Z,76.70
2023-05-23T19:54:38.911Z,76.40
2023-05-23T19:58:01.730Z,76.70
2023-05-23T20:01:24.027Z,76.70
2023-05-23T20:04:46.500Z,76.60
2023-05-23T20:08:08.861Z,77.10
2023-05-23T20:11:31.313Z,76.60
2023-05-23T20:14:53.701Z,76.80
2023-05-23T20:18:16.030Z,77.80
2023-05-23T20:21:38.413Z,78.10
2023-05-23T20:25:01.299Z,78.50
2023-05-23T20:28:23.715Z,78.80
2023-05-23T20:31:46.330Z,79.00
2023-05-23T20:35:09.095Z,79.20
2023-05-23T20:38:34.011Z,80.70
2023-05-23T20:41:56.494Z,80.50
2023-05-23T20:45:18.946Z,80.80
2023-05-23T20:48:41.834Z,84.30
2023-05-23T20:52:05.455Z,86.40
2023-05-23T20:55:29.173Z,79.90
2023-05-23T20:58:51.603Z,80.50
2023-05-23T21:02:13.920Z,80.70
2023-05-23T21:05:36.509Z,80.60
2023-05-23T21:08:58.800Z,80.50
2023-05-23T21:12:21.075Z,80.50
2023-05-23T21:15:43.512Z,80.50
2023-05-23T21:19:05.894Z,80.40
2023-05-23T21:22:28.202Z,80.20
2023-05-23T21:25:50.536Z,80.20
2023-05-23T21:29:13.004Z,80.20
2023-05-23T21:32:35.379Z,80.20
2023-05-23T21:36:00.810Z,80.20
2023-05-23T21:39:23.232Z,80.10
2023-05-23T21:42:45.558Z,80.10
2023-05-23T21:46:07.933Z,80.10
2023-05-23T21:49:35.224Z,80.10
2023-05-23T21:52:57.542Z,80.40
2023-05-23T21:56:19.763Z,80.20
2023-05-23T21:59:42.033Z,80.20
2023-05-23T22:03:04.796Z,80.10
2023-05-23T22:06:27.228Z,80.00
2023-05-23T22:09:51.179Z,80.00
2023-05-23T22:13:13.405Z,80.00
2023-05-23T22:16:41.630Z,80.00
2023-05-23T22:20:05.423Z,80.00
2023-05-23T22:23:27.693Z,80.00
2023-05-23T22:26:49.967Z,80.00
2023-05-23T22:30:12.706Z,80.00
2023-05-23T22:33:34.928Z,79.80
2023-05-23T22:36:59.843Z,79.80
2023-05-23T22:40:22.654Z,79.80
2023-05-23T22:43:45.099Z,79.80
2023-05-23T22:47:07.347Z,79.80
2023-05-23T22:50:29.617Z,79.80
2023-05-23T22:53:52.769Z,79.80
2023-05-23T22:57:15.065Z,79.80
2023-05-23T23:00:37.642Z,79.80
2023-05-23T23:04:00.208Z,79.80
2023-05-23T23:07:22.546Z,79.80
2023-05-23T23:10:45.344Z,79.80
2023-05-23T23:14:08.055Z,79.80
2023-05-23T23:17:30.612Z,79.80
2023-05-23T23:20:54.310Z,79.80
2023-05-23T23:24:16.692Z,79.80
2023-05-23T23:27:39.487Z,79.80
2023-05-23T23:31:02.069Z,79.80
2023-05-23T23:34:24.296Z,79.80
2023-05-23T23:37:46.517Z,80.00
2023-05-23T23:41:08.781Z,80.00
2023-05-23T23:44:31.055Z,79.90
2023-05-23T23:47:53.301Z,80.00
2023-05-23T23:51:15.890Z,79.90
2023-05-23T23:54:38.055Z,79.90
2023-05-23T23:58:00.364Z,79.90
